sensor_id;sensor_type;location;lat;lon;timestamp;P1;durP1;ratioP1;P2;durP2;ratioP2
57535;SDS011;43361;49.790;8.960;2023-06-22T00:08:15;3.00;;;2.80;;
57535;SDS011;43361;49.790;8.960;2023-06-22T00:18:16;4.20;;;3.20;;
57535;SDS011;43361;49.790;8.960;2023-06-22T00:28:18;3.80;;;2.80;;
57535;SDS011;43361;49.790;8.960;2023-06-22T00:38:18;3.30;;;3.00;;
57535;SDS011;43361;49.790;8.960;2023-06-22T00:48:20;3.20;;;2.90;;
57535;SDS011;43361;49.790;8.960;2023-06-22T00:58:21;3.00;;;2.70;;
57535;SDS011;43361;49.790;8.960;2023-06-22T01:08:29;3.50;;;3.17;;
57535;SDS011;43361;49.790;8.960;2023-06-22T01:18:32;3.00;;;2.70;;
57535;SDS011;43361;49.790;8.960;2023-06-22T01:28:45;6.20;;;2.60;;
57535;SDS011;43361;49.790;8.960;2023-06-22T01:38:45;3.10;;;2.80;;
57535;SDS011;43361;49.790;8.960;2023-06-22T01:48:48;4.82;;;3.05;;
57535;SDS011;43361;49.790;8.960;2023-06-22T01:58:50;3.15;;;2.80;;
57535;SDS011;43361;49.790;8.960;2023-06-22T02:08:53;3.13;;;2.80;;
57535;SDS011;43361;49.790;8.960;2023-06-22T02:18:55;3.13;;;2.55;;
57535;SDS011;43361;49.790;8.960;2023-06-22T02:28:56;3.00;;;2.70;;
57535;SDS011;43361;49.790;8.960;2023-06-22T02:38:57;2.97;;;2.67;;
57535;SDS011;43361;49.790;8.960;2023-06-22T02:49:02;3.00;;;2.67;;
57535;SDS011;43361;49.790;8.960;2023-06-22T02:59:02;2.97;;;2.67;;
57535;SDS011;43361;49.790;8.960;2023-06-22T03:09:04;3.30;;;2.63;;
57535;SDS011;43361;49.790;8.960;2023-06-22T03:19:05;3.65;;;2.70;;
57535;SDS011;43361;49.790;8.960;2023-06-22T03:29:07;2.95;;;2.63;;
57535;SDS011;43361;49.790;8.960;2023-06-22T03:39:07;4.93;;;2.50;;
57535;SDS011;43361;49.790;8.960;2023-06-22T03:49:09;2.85;;;2.35;;
57535;SDS011;43361;49.790;8.960;2023-06-22T03:59:09;3.03;;;2.72;;
57535;SDS011;43361;49.790;8.960;2023-06-22T04:09:11;2.60;;;2.40;;
57535;SDS011;43361;49.790;8.960;2023-06-22T04:19:12;2.67;;;2.40;;
57535;SDS011;43361;49.790;8.960;2023-06-22T04:29:17;2.63;;;2.42;;
57535;SDS011;43361;49.790;8.960;2023-06-22T04:39:18;3.85;;;2.58;;
57535;SDS011;43361;49.790;8.960;2023-06-22T04:49:20;2.90;;;2.20;;
57535;SDS011;43361;49.790;8.960;2023-06-22T04:59:21;2.75;;;2.50;;
57535;SDS011;43361;49.790;8.960;2023-06-22T05:09:23;3.35;;;2.55;;
57535;SDS011;43361;49.790;8.960;2023-06-22T05:19:25;2.72;;;2.53;;
57535;SDS011;43361;49.790;8.960;2023-06-22T05:29:27;2.60;;;2.40;;
57535;SDS011;43361;49.790;8.960;2023-06-22T05:39:27;3.22;;;2.63;;
57535;SDS011;43361;49.790;8.960;2023-06-22T05:49:29;2.42;;;2.22;;
57535;SDS011;43361;49.790;8.960;2023-06-22T05:59:32;2.63;;;2.38;;
57535;SDS011;43361;49.790;8.960;2023-06-22T06:09:34;2.53;;;2.22;;
57535;SDS011;43361;49.790;8.960;2023-06-22T06:19:34;2.50;;;2.30;;
57535;SDS011;43361;49.790;8.960;2023-06-22T06:29:36;3.72;;;2.90;;
57535;SDS011;43361;49.790;8.960;2023-06-22T06:39:37;2.90;;;2.45;;
57535;SDS011;43361;49.790;8.960;2023-06-22T06:49:38;2.70;;;2.40;;
57535;SDS011;43361;49.790;8.960;2023-06-22T06:59:39;2.95;;;2.30;;
57535;SDS011;43361;49.790;8.960;2023-06-22T07:09:40;6.65;;;2.25;;
57535;SDS011;43361;49.790;8.960;2023-06-22T07:19:41;5.55;;;2.40;;
57535;SDS011;43361;49.790;8.960;2023-06-22T07:29:43;4.85;;;2.78;;
57535;SDS011;43361;49.790;8.960;2023-06-22T07:39:44;9.43;;;2.78;;
57535;SDS011;43361;49.790;8.960;2023-06-22T07:49:45;4.00;;;2.80;;
57535;SDS011;43361;49.790;8.960;2023-06-22T07:59:46;6.75;;;3.03;;
57535;SDS011;43361;49.790;8.960;2023-06-22T08:09:48;6.50;;;2.50;;
57535;SDS011;43361;49.790;8.960;2023-06-22T08:19:49;7.78;;;3.45;;
57535;SDS011;43361;49.790;8.960;2023-06-22T08:29:50;6.45;;;3.35;;
57535;SDS011;43361;49.790;8.960;2023-06-22T08:39:54;4.57;;;3.20;;
57535;SDS011;43361;49.790;8.960;2023-06-22T08:49:56;9.57;;;4.15;;
57535;SDS011;43361;49.790;8.960;2023-06-22T08:59:56;10.00;;;3.42;;
57535;SDS011;43361;49.790;8.960;2023-06-22T09:10:00;7.03;;;3.58;;
57535;SDS011;43361;49.790;8.960;2023-06-22T09:20:01;7.57;;;3.45;;
57535;SDS011;43361;49.790;8.960;2023-06-22T09:30:03;9.02;;;3.80;;
57535;SDS011;43361;49.790;8.960;2023-06-22T09:40:04;8.55;;;4.00;;
57535;SDS011;43361;49.790;8.960;2023-06-22T09:50:11;7.35;;;3.53;;
57535;SDS011;43361;49.790;8.960;2023-06-22T10:00:12;8.63;;;3.88;;
57535;SDS011;43361;49.790;8.960;2023-06-22T10:10:17;7.88;;;3.45;;
57535;SDS011;43361;49.790;8.960;2023-06-22T10:20:17;7.30;;;3.75;;
57535;SDS011;43361;49.790;8.960;2023-06-22T10:30:19;8.18;;;3.70;;
57535;SDS011;43361;49.790;8.960;2023-06-22T10:40:20;9.48;;;3.70;;
57535;SDS011;43361;49.790;8.960;2023-06-22T10:50:22;13.63;;;4.22;;
57535;SDS011;43361;49.790;8.960;2023-06-22T11:00:24;12.68;;;4.95;;
57535;SDS011;43361;49.790;8.960;2023-06-22T11:10:25;11.60;;;4.32;;
57535;SDS011;43361;49.790;8.960;2023-06-22T11:20:27;12.00;;;4.53;;
57535;SDS011;43361;49.790;8.960;2023-06-22T11:30:28;14.60;;;4.68;;
57535;SDS011;43361;49.790;8.960;2023-06-22T11:40:29;13.45;;;4.85;;
57535;SDS011;43361;49.790;8.960;2023-06-22T11:50:31;10.55;;;5.38;;
57535;SDS011;43361;49.790;8.960;2023-06-22T12:00:35;10.10;;;4.97;;
57535;SDS011;43361;49.790;8.960;2023-06-22T12:10:37;7.97;;;4.50;;
57535;SDS011;43361;49.790;8.960;2023-06-22T12:20:38;8.95;;;4.78;;
57535;SDS011;43361;49.790;8.960;2023-06-22T12:30:39;9.68;;;5.15;;
57535;SDS011;43361;49.790;8.960;2023-06-22T12:40:40;9.65;;;4.72;;
57535;SDS011;43361;49.790;8.960;2023-06-22T12:50:42;10.95;;;5.10;;
57535;SDS011;43361;49.790;8.960;2023-06-22T13:00:42;8.27;;;4.50;;
57535;SDS011;43361;49.790;8.960;2023-06-22T13:10:44;11.60;;;5.68;;
57535;SDS011;43361;49.790;8.960;2023-06-22T13:20:45;10.88;;;5.45;;
57535;SDS011;43361;49.790;8.960;2023-06-22T13:30:47;11.38;;;4.78;;
57535;SDS011;43361;49.790;8.960;2023-06-22T13:40:48;10.20;;;5.25;;
57535;SDS011;43361;49.790;8.960;2023-06-22T13:50:50;10.82;;;5.32;;
57535;SDS011;43361;49.790;8.960;2023-06-22T14:00:51;13.30;;;5.70;;
57535;SDS011;43361;49.790;8.960;2023-06-22T14:10:53;12.93;;;5.68;;
57535;SDS011;43361;49.790;8.960;2023-06-22T14:20:54;10.18;;;5.25;;
57535;SDS011;43361;49.790;8.960;2023-06-22T14:30:56;11.32;;;5.25;;
57535;SDS011;43361;49.790;8.960;2023-06-22T14:40:57;11.15;;;4.97;;
57535;SDS011;43361;49.790;8.960;2023-06-22T14:50:58;12.45;;;5.30;;
57535;SDS011;43361;49.790;8.960;2023-06-22T15:01:00;9.82;;;5.40;;
57535;SDS011;43361;49.790;8.960;2023-06-22T15:11:02;15.60;;;5.80;;
57535;SDS011;43361;49.790;8.960;2023-06-22T15:21:03;32.20;;;7.68;;
57535;SDS011;43361;49.790;8.960;2023-06-22T15:31:05;30.80;;;7.07;;
57535;SDS011;43361;49.790;8.960;2023-06-22T15:41:05;25.95;;;6.43;;
57535;SDS011;43361;49.790;8.960;2023-06-22T15:51:07;32.47;;;7.40;;
57535;SDS011;43361;49.790;8.960;2023-06-22T16:01:08;22.40;;;6.53;;
57535;SDS011;43361;49.790;8.960;2023-06-22T16:11:12;22.73;;;6.93;;
57535;SDS011;43361;49.790;8.960;2023-06-22T16:21:12;19.00;;;9.85;;
57535;SDS011;43361;49.790;8.960;2023-06-22T16:31:14;13.98;;;7.70;;
57535;SDS011;43361;49.790;8.960;2023-06-22T16:41:15;21.88;;;12.20;;
57535;SDS011;43361;49.790;8.960;2023-06-22T16:51:17;23.33;;;11.25;;
57535;SDS011;43361;49.790;8.960;2023-06-22T17:01:18;18.30;;;9.88;;
57535;SDS011;43361;49.790;8.960;2023-06-22T17:11:19;17.67;;;9.68;;
57535;SDS011;43361;49.790;8.960;2023-06-22T17:21:20;17.85;;;8.45;;
57535;SDS011;43361;49.790;8.960;2023-06-22T17:31:22;20.50;;;8.70;;
57535;SDS011;43361;49.790;8.960;2023-06-22T17:41:28;16.27;;;8.25;;
57535;SDS011;43361;49.790;8.960;2023-06-22T17:51:32;15.63;;;8.63;;
57535;SDS011;43361;49.790;8.960;2023-06-22T18:01:33;14.15;;;7.80;;
57535;SDS011;43361;49.790;8.960;2023-06-22T18:11:37;17.10;;;7.85;;
57535;SDS011;43361;49.790;8.960;2023-06-22T18:21:40;16.90;;;7.88;;
57535;SDS011;43361;49.790;8.960;2023-06-22T18:31:43;25.25;;;8.32;;
57535;SDS011;43361;49.790;8.960;2023-06-22T18:41:48;19.65;;;8.13;;
57535;SDS011;43361;49.790;8.960;2023-06-22T18:51:54;30.20;;;8.95;;
57535;SDS011;43361;49.790;8.960;2023-06-22T19:01:54;29.40;;;8.70;;
57535;SDS011;43361;49.790;8.960;2023-06-22T19:22:11;25.73;;;8.15;;
57535;SDS011;43361;49.790;8.960;2023-06-22T19:32:12;22.77;;;8.15;;
57535;SDS011;43361;49.790;8.960;2023-06-22T19:42:13;20.58;;;7.97;;
57535;SDS011;43361;49.790;8.960;2023-06-22T19:52:14;21.13;;;7.43;;
57535;SDS011;43361;49.790;8.960;2023-06-22T20:02:16;18.08;;;6.95;;
57535;SDS011;43361;49.790;8.960;2023-06-22T20:12:22;19.63;;;7.43;;
57535;SDS011;43361;49.790;8.960;2023-06-22T20:22:24;18.48;;;6.78;;
57535;SDS011;43361;49.790;8.960;2023-06-22T20:32:25;18.83;;;6.60;;
57535;SDS011;43361;49.790;8.960;2023-06-22T20:42:27;20.48;;;6.57;;
57535;SDS011;43361;49.790;8.960;2023-06-22T20:52:27;15.95;;;5.90;;
57535;SDS011;43361;49.790;8.960;2023-06-22T21:02:29;17.02;;;6.80;;
57535;SDS011;43361;49.790;8.960;2023-06-22T21:12:29;14.48;;;6.38;;
57535;SDS011;43361;49.790;8.960;2023-06-22T21:22:31;14.80;;;6.32;;
57535;SDS011;43361;49.790;8.960;2023-06-22T21:32:32;15.95;;;6.32;;
57535;SDS011;43361;49.790;8.960;2023-06-22T21:42:33;11.02;;;5.75;;
57535;SDS011;43361;49.790;8.960;2023-06-22T21:52:34;11.82;;;5.78;;
57535;SDS011;43361;49.790;8.960;2023-06-22T22:02:36;13.75;;;5.45;;
57535;SDS011;43361;49.790;8.960;2023-06-22T22:12:36;11.48;;;5.70;;
57535;SDS011;43361;49.790;8.960;2023-06-22T22:22:38;11.25;;;5.22;;
57535;SDS011;43361;49.790;8.960;2023-06-22T22:32:38;9.18;;;5.05;;
57535;SDS011;43361;49.790;8.960;2023-06-22T22:42:40;7.82;;;4.80;;
57535;SDS011;43361;49.790;8.960;2023-06-22T22:52:40;6.70;;;4.35;;
57535;SDS011;43361;49.790;8.960;2023-06-22T23:02:42;8.52;;;4.80;;
57535;SDS011;43361;49.790;8.960;2023-06-22T23:12:43;10.20;;;5.13;;
57535;SDS011;43361;49.790;8.960;2023-06-22T23:22:45;6.90;;;4.10;;
57535;SDS011;43361;49.790;8.960;2023-06-22T23:32:46;8.95;;;4.28;;
57535;SDS011;43361;49.790;8.960;2023-06-22T23:42:48;7.53;;;4.45;;
57535;SDS011;43361;49.790;8.960;2023-06-22T23:52:49;9.43;;;4.50;;
